Time;durP1;ratioP1;P1;durP2;ratioP2;P2;SDS_P1;SDS_P2;PMS_P1;PMS_P2;Temp;Humidity;BMP_temperature;BMP_pressure;BME280_temperature;BME280_humidity;BME280_pressure;Samples;Min_cycle;Max_cycle;Signal;HPM_P1;HPM_P2
2022/10/02 00:02:49;;;;;;;11.40;2.70;;;;;;;;;;5046073;28;20124;-85
2022/10/02 00:05:25;;;;;;;6.65;1.83;;;;;;;;;;5025896;28;20044;-84
2022/10/02 00:08:10;;;;;;;9.75;1.90;;;;;;;;;;5046428;28;21101;-85
2022/10/02 00:10:46;;;;;;;10.82;1.80;;;;;;;;;;5047084;28;20055;-86
2022/10/02 00:13:45;;;;;;;12.07;1.70;;;;;;;;;;5047478;28;20033;-85
2022/10/02 00:16:32;;;;;;;11.57;2.00;;;;;;;;;;5046397;28;20053;-86
2022/10/02 00:19:30;;;;;;;10.57;2.30;;;;;;;;;;5047294;28;20043;-86
2022/10/02 00:22:25;;;;;;;12.00;1.90;;;;;;;;;;5046218;28;20965;-86
2022/10/02 00:25:06;;;;;;;8.85;2.40;;;;;;;;;;5048042;28;20051;-85
2022/10/02 00:28:00;;;;;;;14.18;2.03;;;;;;;;;;5045649;28;20051;-86
2022/10/02 00:30:47;;;;;;;6.78;1.98;;;;;;;;;;5026345;28;20127;-86
2022/10/02 00:33:40;;;;;;;10.57;1.75;;;;;;;;;;5046882;28;20382;-86
2022/10/02 00:36:39;;;;;;;19.35;2.33;;;;;;;;;;5043516;28;20047;-86
2022/10/02 00:39:45;;;;;;;13.73;1.85;;;;;;;;;;5046048;28;20044;-85
2022/10/02 00:43:02;;;;;;;8.82;2.08;;;;;;;;;;5045487;28;20993;-86
2022/10/02 00:46:30;;;;;;;8.07;1.98;;;;;;;;;;5046645;28;20573;-86
2022/10/02 00:49:15;;;;;;;7.90;1.70;;;;;;;;;;5044603;28;20129;-85
2022/10/02 00:52:09;;;;;;;8.43;1.95;;;;;;;;;;5047160;28;20047;-86
2022/10/02 00:55:39;;;;;;;12.55;2.20;;;;;;;;;;5047854;28;20512;-85
2022/10/02 00:58:19;;;;;;;7.22;1.80;;;;;;;;;;5045324;28;20044;-85
2022/10/02 01:01:01;;;;;;;18.48;2.90;;;;;;;;;;5044384;28;20103;-86
2022/10/02 01:03:41;;;;;;;7.60;1.90;;;;;;;;;;5046637;28;20068;-86
2022/10/02 01:06:13;;;;;;;11.90;2.55;;;;;;;;;;5046398;28;20041;-86
2022/10/02 01:08:42;;;;;;;9.27;2.00;;;;;;;;;;5026994;28;20033;-85
2022/10/02 01:11:34;;;;;;;9.38;1.85;;;;;;;;;;5033083;28;20056;-86
2022/10/02 01:14:02;;;;;;;11.93;1.70;;;;;;;;;;5045715;28;20033;-86
2022/10/02 01:16:31;;;;;;;9.88;1.75;;;;;;;;;;5046801;28;20401;-86
2022/10/02 01:19:07;;;;;;;10.32;2.50;;;;;;;;;;5046152;28;20600;-86
2022/10/02 01:22:16;;;;;;;9.43;2.88;;;;;;;;;;5046150;28;20033;-86
2022/10/02 01:24:51;;;;;;;5.28;1.90;;;;;;;;;;5046372;28;20042;-85
2022/10/02 01:27:44;;;;;;;10.02;1.73;;;;;;;;;;5046169;28;20076;-86
2022/10/02 01:30:18;;;;;;;8.90;2.00;;;;;;;;;;5026493;28;20132;-86
2022/10/02 01:32:56;;;;;;;10.93;1.90;;;;;;;;;;5047225;28;20069;-86
2022/10/02 01:35:30;;;;;;;16.67;2.78;;;;;;;;;;5047591;28;20049;-86
2022/10/02 01:38:10;;;;;;;9.38;2.70;;;;;;;;;;5027050;28;20045;-86
2022/10/02 01:40:39;;;;;;;10.80;2.75;;;;;;;;;;5048586;28;20048;-85
2022/10/02 01:43:13;;;;;;;9.23;2.65;;;;;;;;;;5046689;28;20057;-86
2022/10/02 01:46:22;;;;;;;9.63;2.40;;;;;;;;;;5045327;28;20044;-87
2022/10/02 01:49:13;;;;;;;8.13;2.33;;;;;;;;;;5044938;28;20053;-87
2022/10/02 01:51:41;;;;;;;11.43;2.30;;;;;;;;;;5046664;28;20505;-86
2022/10/02 01:54:28;;;;;;;6.82;1.90;;;;;;;;;;5048669;28;20043;-86
2022/10/02 01:57:20;;;;;;;10.15;2.08;;;;;;;;;;5047536;28;20556;-86
2022/10/02 02:00:24;;;;;;;14.13;2.17;;;;;;;;;;5048400;28;20505;-86
2022/10/02 02:03:05;;;;;;;10.30;1.98;;;;;;;;;;5049987;28;20091;-86
2022/10/02 02:06:16;;;;;;;7.53;1.95;;;;;;;;;;5050870;28;20037;-86
2022/10/02 02:08:54;;;;;;;8.63;2.20;;;;;;;;;;5049568;28;20041;-86
2022/10/02 02:11:29;;;;;;;6.47;1.83;;;;;;;;;;5047399;28;20646;-86
2022/10/02 02:14:10;;;;;;;9.88;2.40;;;;;;;;;;5049491;28;20041;-86
2022/10/02 02:16:48;;;;;;;9.05;1.90;;;;;;;;;;5048290;28;20040;-87
2022/10/02 02:19:40;;;;;;;8.63;2.05;;;;;;;;;;5049605;28;20196;-87
2022/10/02 02:22:18;;;;;;;7.03;2.20;;;;;;;;;;5025181;28;20037;-86
2022/10/02 02:24:58;;;;;;;8.13;1.98;;;;;;;;;;5045292;28;20049;-86
2022/10/02 02:27:31;;;;;;;9.00;2.40;;;;;;;;;;5025535;28;20045;-86
2022/10/02 02:30:05;;;;;;;6.00;1.73;;;;;;;;;;5047489;28;20049;-86
2022/10/02 02:33:01;;;;;;;10.02;2.25;;;;;;;;;;5045006;28;20131;-86
2022/10/02 02:35:34;;;;;;;7.72;1.80;;;;;;;;;;5029446;28;20048;-86
2022/10/02 02:38:09;;;;;;;12.13;2.25;;;;;;;;;;5049496;28;20099;-87
2022/10/02 02:40:44;;;;;;;9.35;1.90;;;;;;;;;;5030980;28;20052;-86
2022/10/02 02:43:20;;;;;;;3.60;1.52;;;;;;;;;;5047682;28;20048;-87
2022/10/02 02:45:55;;;;;;;7.35;1.70;;;;;;;;;;5049666;28;20717;-86
2022/10/02 02:48:32;;;;;;;8.73;2.03;;;;;;;;;;5050747;28;20140;-86
2022/10/02 02:51:12;;;;;;;6.88;2.20;;;;;;;;;;5049303;28;20068;-86
2022/10/02 02:54:03;;;;;;;7.50;1.70;;;;;;;;;;5048604;28;20055;-86
2022/10/02 02:56:57;;;;;;;9.05;1.92;;;;;;;;;;5048930;28;20044;-86
2022/10/02 02:59:28;;;;;;;9.75;2.10;;;;;;;;;;5050153;28;20053;-86
2022/10/02 03:04:49;;;;;;;4.90;1.73;;;;;;;;;;5050234;28;20075;-86
2022/10/02 03:07:49;;;;;;;7.65;2.10;;;;;;;;;;5049647;28;20044;-86
2022/10/02 03:10:44;;;;;;;8.57;1.63;;;;;;;;;;5049829;28;20037;-86
2022/10/02 03:13:39;;;;;;;6.82;1.63;;;;;;;;;;5049921;28;20048;-86
2022/10/02 03:16:21;;;;;;;5.35;1.42;;;;;;;;;;5048231;28;20131;-86
2022/10/02 03:19:39;;;;;;;6.30;1.85;;;;;;;;;;5049494;28;20025;-86
2022/10/02 03:22:52;;;;;;;7.03;1.75;;;;;;;;;;5048259;28;20040;-86
2022/10/02 03:25:52;;;;;;;5.18;1.77;;;;;;;;;;5049122;28;20488;-86
2022/10/02 03:28:37;;;;;;;9.15;1.75;;;;;;;;;;5051582;28;20326;-86
2022/10/02 03:31:31;;;;;;;11.13;1.95;;;;;;;;;;5047915;28;20223;-86
2022/10/02 03:34:09;;;;;;;9.25;1.70;;;;;;;;;;5049985;28;20069;-86
2022/10/02 03:36:36;;;;;;;5.00;1.55;;;;;;;;;;5048978;28;20489;-86
2022/10/02 03:39:29;;;;;;;6.13;1.70;;;;;;;;;;5050150;28;20059;-86
2022/10/02 03:41:58;;;;;;;10.60;2.05;;;;;;;;;;5049166;28;20037;-86
2022/10/02 03:44:29;;;;;;;8.27;1.95;;;;;;;;;;5027201;28;20111;-86
2022/10/02 03:47:22;;;;;;;11.18;2.20;;;;;;;;;;5048109;28;20036;-86
2022/10/02 03:49:53;;;;;;;9.75;1.95;;;;;;;;;;5046980;28;20049;-86
2022/10/02 03:52:30;;;;;;;6.20;1.70;;;;;;;;;;5047414;28;20373;-86
2022/10/02 03:55:03;;;;;;;5.75;1.77;;;;;;;;;;5049401;28;20041;-86
2022/10/02 03:57:36;;;;;;;4.07;1.38;;;;;;;;;;5049477;28;20087;-86
2022/10/02 04:00:12;;;;;;;8.70;1.55;;;;;;;;;;5048480;28;20045;-87
2022/10/02 04:03:13;;;;;;;2.58;1.50;;;;;;;;;;5031832;28;20382;-86
2022/10/02 04:05:55;;;;;;;10.40;2.75;;;;;;;;;;5030223;28;20068;-86
2022/10/02 04:08:28;;;;;;;4.65;1.50;;;;;;;;;;5050717;28;20053;-86
2022/10/02 04:11:23;;;;;;;5.70;1.65;;;;;;;;;;5032081;28;20045;-86
2022/10/02 04:13:57;;;;;;;4.85;1.40;;;;;;;;;;5047514;28;20102;-86
2022/10/02 04:16:41;;;;;;;7.72;1.48;;;;;;;;;;5046811;28;20053;-86
2022/10/02 04:19:43;;;;;;;8.65;1.90;;;;;;;;;;5050036;28;20045;-86
2022/10/02 04:22:12;;;;;;;5.68;1.63;;;;;;;;;;5048899;28;20047;-86
2022/10/02 04:25:11;;;;;;;5.80;1.98;;;;;;;;;;5047649;28;20036;-86
2022/10/02 04:27:46;;;;;;;7.70;1.90;;;;;;;;;;5050022;28;20127;-86
2022/10/02 04:30:16;;;;;;;3.58;1.40;;;;;;;;;;5046038;28;20382;-86
2022/10/02 04:32:50;;;;;;;5.78;1.73;;;;;;;;;;5050320;28;20039;-86
2022/10/02 04:35:46;;;;;;;5.20;1.60;;;;;;;;;;5047371;28;20040;-86
2022/10/02 04:38:38;;;;;;;4.65;1.95;;;;;;;;;;5048806;28;20390;-86
2022/10/02 04:41:15;;;;;;;4.30;1.52;;;;;;;;;;5049406;28;20404;-86
2022/10/02 04:43:41;;;;;;;4.35;1.70;;;;;;;;;;5049815;28;20041;-86
2022/10/02 04:46:32;;;;;;;5.45;1.90;;;;;;;;;;5029468;28;20128;-86
2022/10/02 04:49:41;;;;;;;6.85;1.60;;;;;;;;;;5030771;28;20522;-86
2022/10/02 04:52:19;;;;;;;7.13;1.90;;;;;;;;;;5048086;28;20037;-86
2022/10/02 04:55:07;;;;;;;5.97;1.83;;;;;;;;;;5048267;28;20057;-86
2022/10/02 04:57:57;;;;;;;6.93;2.17;;;;;;;;;;5049493;28;20044;-86
2022/10/02 05:00:35;;;;;;;4.38;1.65;;;;;;;;;;5038732;28;20508;-87
2022/10/02 05:03:52;;;;;;;3.67;1.60;;;;;;;;;;5047321;28;20056;-86
2022/10/02 05:06:49;;;;;;;6.70;1.92;;;;;;;;;;5047985;28;20039;-86
2022/10/02 05:09:30;;;;;;;6.72;2.00;;;;;;;;;;5047674;28;20041;-86
2022/10/02 05:12:03;;;;;;;5.30;1.67;;;;;;;;;;5046063;28;20036;-86
2022/10/02 05:14:46;;;;;;;9.80;2.17;;;;;;;;;;5046095;28;20079;-86
2022/10/02 05:17:39;;;;;;;3.33;1.67;;;;;;;;;;5047119;28;20409;-86
2022/10/02 05:20:42;;;;;;;7.95;2.38;;;;;;;;;;5048213;28;20136;-86
2022/10/02 05:23:24;;;;;;;13.13;2.35;;;;;;;;;;5046655;28;20511;-86
2022/10/02 05:26:25;;;;;;;7.05;2.30;;;;;;;;;;5047188;28;20044;-86
2022/10/02 05:29:18;;;;;;;10.68;2.33;;;;;;;;;;5023809;28;20037;-86
2022/10/02 05:32:08;;;;;;;4.43;1.80;;;;;;;;;;5046438;28;20044;-86
2022/10/02 05:35:08;;;;;;;5.18;2.35;;;;;;;;;;5047140;28;20040;-86
2022/10/02 05:37:46;;;;;;;8.68;2.40;;;;;;;;;;5048669;28;20072;-86
2022/10/02 05:40:29;;;;;;;8.15;2.65;;;;;;;;;;5046603;28;20121;-86
2022/10/02 05:43:12;;;;;;;10.48;2.60;;;;;;;;;;5047308;28;20045;-86
2022/10/02 05:46:23;;;;;;;8.63;3.08;;;;;;;;;;5029052;28;20029;-86
2022/10/02 05:48:58;;;;;;;9.65;2.72;;;;;;;;;;5047363;28;20110;-86
2022/10/02 05:51:39;;;;;;;9.57;2.83;;;;;;;;;;5046276;28;21736;-86
2022/10/02 05:54:39;;;;;;;10.05;2.33;;;;;;;;;;5047877;28;20069;-85
2022/10/02 05:57:15;;;;;;;8.60;2.60;;;;;;;;;;5047561;28;20044;-86
2022/10/02 05:59:49;;;;;;;11.32;3.20;;;;;;;;;;5045958;28;20071;-86
2022/10/02 06:03:03;;;;;;;10.68;2.60;;;;;;;;;;5047044;28;20049;-86
2022/10/02 06:05:53;;;;;;;8.50;2.63;;;;;;;;;;5047951;28;20034;-86
2022/10/02 06:09:03;;;;;;;9.00;3.55;;;;;;;;;;5045128;28;20037;-86
2022/10/02 06:11:45;;;;;;;11.30;3.15;;;;;;;;;;5046990;28;20446;-85
2022/10/02 06:14:46;;;;;;;5.30;2.72;;;;;;;;;;5046871;28;20148;-86
2022/10/02 06:17:35;;;;;;;9.50;2.67;;;;;;;;;;5045101;28;20040;-86
2022/10/02 06:20:24;;;;;;;5.15;2.63;;;;;;;;;;5047615;28;20077;-86
2022/10/02 06:23:19;;;;;;;7.38;2.83;;;;;;;;;;5046135;28;20045;-86
2022/10/02 06:26:10;;;;;;;12.30;2.75;;;;;;;;;;5046539;28;20070;-85
2022/10/02 06:29:10;;;;;;;10.25;3.15;;;;;;;;;;5047641;28;20041;-86
2022/10/02 06:31:50;;;;;;;10.45;3.08;;;;;;;;;;5046473;28;20055;-86
2022/10/02 06:34:29;;;;;;;11.73;3.05;;;;;;;;;;5047428;28;20060;-86
2022/10/02 06:37:11;;;;;;;12.70;3.25;;;;;;;;;;5044948;28;20030;-86
2022/10/02 06:40:10;;;;;;;10.88;3.05;;;;;;;;;;5047185;28;20053;-86
2022/10/02 06:42:40;;;;;;;12.98;3.17;;;;;;;;;;5050359;28;20068;-86
2022/10/02 06:45:38;;;;;;;9.95;2.40;;;;;;;;;;5049794;28;20481;-87
2022/10/02 06:48:29;;;;;;;8.57;2.47;;;;;;;;;;5050070;28;20485;-86
2022/10/02 06:51:09;;;;;;;6.05;2.35;;;;;;;;;;5045037;28;20120;-86
2022/10/02 06:54:01;;;;;;;8.80;2.38;;;;;;;;;;5044533;28;20087;-86
2022/10/02 06:56:57;;;;;;;7.70;2.80;;;;;;;;;;5046242;28;20041;-86
2022/10/02 06:59:54;;;;;;;6.88;2.08;;;;;;;;;;5029200;28;20052;-86
2022/10/02 07:02:39;;;;;;;9.57;2.15;;;;;;;;;;5048576;28;20072;-86
2022/10/02 07:05:25;;;;;;;11.77;2.65;;;;;;;;;;5045188;28;20382;-86
2022/10/02 07:08:05;;;;;;;7.25;2.20;;;;;;;;;;5040489;28;20269;-85
2022/10/02 07:10:59;;;;;;;6.53;2.17;;;;;;;;;;5046045;28;20045;-87
2022/10/02 07:13:57;;;;;;;6.70;2.20;;;;;;;;;;5045310;28;20038;-87
2022/10/02 07:16:53;;;;;;;8.13;1.98;;;;;;;;;;5042650;28;20079;-86
2022/10/02 07:20:23;;;;;;;4.25;2.10;;;;;;;;;;5035992;28;20045;-86
2022/10/02 07:23:34;;;;;;;7.63;1.88;;;;;;;;;;4958595;28;20130;-86
2022/10/02 07:26:10;;;;;;;7.13;2.47;;;;;;;;;;4960621;28;21293;-85
2022/10/02 07:28:43;;;;;;;8.68;1.73;;;;;;;;;;4961093;28;20047;-86
2022/10/02 07:32:30;;;;;;;6.10;1.90;;;;;;;;;;4959309;28;21765;-86
2022/10/02 07:35:04;;;;;;;6.88;2.00;;;;;;;;;;4921330;29;20054;-86
2022/10/02 07:41:42;;;;;;;3.55;1.70;;;;;;;;;;4922676;29;20150;-84
2022/10/02 07:44:24;;;;;;;6.95;1.80;;;;;;;;;;4898039;29;20057;-85
2022/10/02 07:47:11;;;;;;;6.93;1.77;;;;;;;;;;4880754;29;20048;-85
2022/10/02 07:50:00;;;;;;;7.45;1.98;;;;;;;;;;4900277;29;20048;-85
2022/10/02 07:52:48;;;;;;;4.55;1.67;;;;;;;;;;4894603;29;20159;-84
2022/10/02 07:55:21;;;;;;;9.10;2.20;;;;;;;;;;4906129;29;20044;-84
2022/10/02 07:58:27;;;;;;;6.97;1.63;;;;;;;;;;4892465;29;20190;-84
2022/10/02 08:01:24;;;;;;;3.90;1.50;;;;;;;;;;4906368;29;20161;-84
2022/10/02 08:03:59;;;;;;;5.20;1.67;;;;;;;;;;4906982;29;20664;-84
2022/10/02 08:06:30;;;;;;;7.07;1.70;;;;;;;;;;4922337;28;20087;-84
2022/10/02 08:09:11;;;;;;;6.32;2.00;;;;;;;;;;4944180;28;20115;-84
2022/10/02 08:11:53;;;;;;;8.30;1.90;;;;;;;;;;4947248;28;20043;-84
2022/10/02 08:14:39;;;;;;;3.80;1.90;;;;;;;;;;4931712;28;20078;-84
2022/10/02 08:17:28;;;;;;;5.63;1.88;;;;;;;;;;4928870;28;20106;-84
2022/10/02 08:20:47;;;;;;;;;;;;;;;;;;4965861;28;20040;-84
2022/10/02 08:23:23;;;;;;;5.82;2.50;;;;;;;;;;5047480;28;19928;-84
2022/10/02 08:26:11;;;;;;;11.25;2.10;;;;;;;;;;5042876;28;20150;-84
2022/10/02 08:29:30;;;;;;;6.90;1.90;;;;;;;;;;5045168;28;20114;-84
2022/10/02 08:32:01;;;;;;;6.50;1.90;;;;;;;;;;4949865;28;20046;-84
2022/10/02 08:34:36;;;;;;;9.35;1.67;;;;;;;;;;4967064;28;20102;-84
2022/10/02 08:37:28;;;;;;;5.75;1.70;;;;;;;;;;4948790;28;20423;-84
2022/10/02 08:40:00;;;;;;;7.60;1.80;;;;;;;;;;4937100;28;20050;-84
2022/10/02 08:42:55;;;;;;;7.32;1.90;;;;;;;;;;4962301;28;20129;-84
2022/10/02 08:46:15;;;;;;;5.20;1.60;;;;;;;;;;4965866;28;20098;-84
2022/10/02 08:49:23;;;;;;;7.07;2.22;;;;;;;;;;4963304;28;20451;-84
2022/10/02 08:52:05;;;;;;;7.47;1.65;;;;;;;;;;4950868;28;20569;-84
2022/10/02 08:55:04;;;;;;;8.75;1.60;;;;;;;;;;4951868;28;20510;-84
2022/10/02 08:58:15;;;;;;;7.50;1.80;;;;;;;;;;4935592;28;20068;-84
2022/10/02 09:01:16;;;;;;;5.05;1.63;;;;;;;;;;4931283;28;20147;-84
2022/10/02 09:04:25;;;;;;;6.13;1.90;;;;;;;;;;4959223;28;20047;-84
2022/10/02 09:07:03;;;;;;;6.03;1.50;;;;;;;;;;4946591;28;20511;-85
2022/10/02 09:09:34;;;;;;;5.05;1.42;;;;;;;;;;5018943;28;20063;-85
2022/10/02 09:12:31;;;;;;;7.18;1.27;;;;;;;;;;5032214;28;20115;-85
2022/10/02 09:15:08;;;;;;;6.65;2.03;;;;;;;;;;5046896;28;20401;-85
2022/10/02 09:17:46;;;;;;;4.65;1.40;;;;;;;;;;5015003;28;20520;-85
2022/10/02 09:20:48;;;;;;;6.82;1.73;;;;;;;;;;5041037;28;20045;-85
2022/10/02 09:23:46;;;;;;;7.22;1.60;;;;;;;;;;5043141;28;20033;-85
2022/10/02 09:26:51;;;;;;;8.23;2.13;;;;;;;;;;5026063;28;20388;-85
2022/10/02 09:29:50;;;;;;;4.55;1.73;;;;;;;;;;5037619;28;20115;-85
2022/10/02 09:32:56;;;;;;;8.57;2.20;;;;;;;;;;5021551;28;20135;-86
2022/10/02 09:36:23;;;;;;;5.32;2.33;;;;;;;;;;5027541;28;20044;-86
2022/10/02 09:39:28;;;;;;;5.53;1.88;;;;;;;;;;4965017;28;20047;-86
2022/10/02 09:42:29;;;;;;;8.65;2.05;;;;;;;;;;4964016;28;20043;-85
2022/10/02 09:45:51;;;;;;;11.32;2.08;;;;;;;;;;4961961;28;20062;-86
2022/10/02 09:48:44;;;;;;;11.75;2.20;;;;;;;;;;4945143;28;20483;-86
2022/10/02 09:51:41;;;;;;;9.77;2.50;;;;;;;;;;4944774;28;20043;-86
2022/10/02 09:54:36;;;;;;;8.68;1.90;;;;;;;;;;4947344;28;20682;-86
2022/10/02 09:57:29;;;;;;;5.68;1.98;;;;;;;;;;4942312;28;20055;-86
2022/10/02 10:00:13;;;;;;;7.20;1.70;;;;;;;;;;4946144;28;20043;-88
2022/10/02 10:02:57;;;;;;;8.88;1.98;;;;;;;;;;4947209;28;20066;-86
2022/10/02 10:05:52;;;;;;;10.05;2.10;;;;;;;;;;4945764;28;20047;-86
2022/10/02 10:08:47;;;;;;;13.20;2.75;;;;;;;;;;4945553;28;20104;-84
2022/10/02 10:12:01;;;;;;;7.57;1.73;;;;;;;;;;4962380;28;20550;-85
2022/10/02 10:15:07;;;;;;;6.60;1.85;;;;;;;;;;4922654;29;20063;-84
2022/10/02 10:18:08;;;;;;;11.57;1.90;;;;;;;;;;4926837;29;20043;-85
2022/10/02 10:21:12;;;;;;;10.07;1.63;;;;;;;;;;4925407;29;20196;-84
2022/10/02 10:24:47;;;;;;;10.48;1.90;;;;;;;;;;4928750;28;20052;-84
2022/10/02 10:27:34;;;;;;;6.68;1.38;;;;;;;;;;4918010;29;20147;-84
2022/10/02 10:30:22;;;;;;;6.10;1.42;;;;;;;;;;4918922;29;20059;-84
2022/10/02 10:32:59;;;;;;;6.25;1.08;;;;;;;;;;4904624;29;20459;-84
2022/10/02 10:35:56;;;;;;;5.57;1.30;;;;;;;;;;4905766;29;20059;-85
2022/10/02 10:38:50;;;;;;;7.65;1.48;;;;;;;;;;4918935;29;20126;-84
2022/10/02 10:41:51;;;;;;;8.93;1.45;;;;;;;;;;4912939;29;20516;-85
2022/10/02 10:44:51;;;;;;;5.03;1.20;;;;;;;;;;4915257;29;20622;-85
2022/10/02 10:48:02;;;;;;;6.65;1.40;;;;;;;;;;4915989;29;20130;-85
2022/10/02 10:51:15;;;;;;;4.47;1.10;;;;;;;;;;4912474;29;20064;-85
2022/10/02 10:54:16;;;;;;;4.85;1.13;;;;;;;;;;4910900;29;20067;-85
2022/10/02 10:57:29;;;;;;;8.63;1.73;;;;;;;;;;4909447;29;20114;-85
2022/10/02 11:00:22;;;;;;;7.10;1.50;;;;;;;;;;4919523;28;20067;-85
2022/10/02 11:02:58;;;;;;;6.40;1.50;;;;;;;;;;4957496;28;20113;-85
2022/10/02 11:05:50;;;;;;;9.90;1.65;;;;;;;;;;4983226;28;20132;-85
2022/10/02 11:09:03;;;;;;;8.40;1.95;;;;;;;;;;4983035;28;20126;-85
2022/10/02 11:11:45;;;;;;;10.05;1.50;;;;;;;;;;4987263;28;20045;-85
2022/10/02 11:15:03;;;;;;;9.02;1.80;;;;;;;;;;4984002;28;20072;-85
2022/10/02 11:17:55;;;;;;;9.85;1.17;;;;;;;;;;4985850;28;20054;-85
2022/10/02 11:21:01;;;;;;;5.93;1.55;;;;;;;;;;4891833;29;20159;-85
2022/10/02 11:23:54;;;;;;;10.65;1.30;;;;;;;;;;4872619;29;20048;-85
2022/10/02 11:26:35;;;;;;;12.00;1.80;;;;;;;;;;4890746;29;20503;-85
2022/10/02 11:29:32;;;;;;;14.18;1.73;;;;;;;;;;4914431;29;20541;-86
2022/10/02 11:32:13;;;;;;;7.63;1.85;;;;;;;;;;4927210;29;20070;-86
2022/10/02 11:34:42;;;;;;;11.43;1.63;;;;;;;;;;4924326;29;20059;-86
2022/10/02 11:37:51;;;;;;;11.45;1.55;;;;;;;;;;4927155;29;20487;-88
2022/10/02 11:40:39;;;;;;;7.00;1.58;;;;;;;;;;4926821;29;22844;-88
2022/10/02 11:43:51;;;;;;;6.45;1.80;;;;;;;;;;4921681;29;20559;-88
2022/10/02 11:46:22;;;;;;;13.68;1.98;;;;;;;;;;4930141;29;20044;-88
2022/10/02 11:49:25;;;;;;;9.10;2.08;;;;;;;;;;4927043;29;20550;-88
2022/10/02 11:52:29;;;;;;;14.05;2.03;;;;;;;;;;4871292;29;20060;-89
2022/10/02 11:55:18;;;;;;;8.88;2.00;;;;;;;;;;4874186;29;20053;-88
2022/10/02 11:58:17;;;;;;;5.78;1.27;;;;;;;;;;4929834;28;20238;-86
2022/10/02 12:01:04;;;;;;;9.73;1.65;;;;;;;;;;4952800;28;20525;-86
2022/10/02 12:03:35;;;;;;;7.93;1.50;;;;;;;;;;4969044;28;20811;-88
2022/10/02 12:06:47;;;;;;;9.95;1.52;;;;;;;;;;4967171;28;20086;-86
2022/10/02 12:09:39;;;;;;;9.05;1.25;;;;;;;;;;4929268;29;20567;-86
2022/10/02 12:12:24;;;;;;;12.07;2.30;;;;;;;;;;4929438;29;20126;-86
2022/10/02 12:15:23;;;;;;;9.82;1.58;;;;;;;;;;4927564;29;20056;-86
2022/10/02 12:17:55;;;;;;;7.93;1.33;;;;;;;;;;4930843;29;20571;-86
2022/10/02 12:27:25;;;;;;;9.45;1.77;;;;;;;;;;4832495;29;20061;-86
2022/10/02 12:30:40;;;;;;;7.57;1.55;;;;;;;;;;4832051;29;20081;-85
2022/10/02 12:33:58;;;;;;;15.68;3.55;;;;;;;;;;4832265;29;20454;-85
2022/10/02 12:37:04;;;;;;;8.00;1.63;;;;;;;;;;4820409;29;20075;-84
2022/10/02 12:39:53;;;;;;;12.73;1.83;;;;;;;;;;4835350;29;20057;-86
2022/10/02 12:42:39;;;;;;;10.40;1.98;;;;;;;;;;4835142;29;20049;-85
2022/10/02 12:45:27;;;;;;;7.45;1.80;;;;;;;;;;4845483;29;20061;-84
2022/10/02 12:48:43;;;;;;;12.68;1.83;;;;;;;;;;4923161;29;20071;-85
2022/10/02 12:51:53;;;;;;;22.92;2.67;;;;;;;;;;4927327;29;20055;-84
2022/10/02 12:55:07;;;;;;;13.93;2.90;;;;;;;;;;4921844;29;20547;-85
2022/10/02 12:57:57;;;;;;;10.38;1.92;;;;;;;;;;4881539;29;20561;-84
2022/10/02 13:00:44;;;;;;;11.85;1.90;;;;;;;;;;4956433;28;20078;-85
2022/10/02 13:03:39;;;;;;;12.45;2.88;;;;;;;;;;4984135;28;20066;-85
2022/10/02 13:06:28;;;;;;;7.35;1.80;;;;;;;;;;4986366;28;20613;-85
2022/10/02 13:09:18;;;;;;;9.77;1.85;;;;;;;;;;4984859;28;20641;-86
2022/10/02 13:12:18;;;;;;;12.80;2.25;;;;;;;;;;4985817;28;20054;-86
2022/10/02 13:15:24;;;;;;;13.35;2.28;;;;;;;;;;4984498;28;20247;-85
2022/10/02 13:18:06;;;;;;;15.93;2.88;;;;;;;;;;4969358;28;20169;-85
2022/10/02 13:20:41;;;;;;;12.40;2.80;;;;;;;;;;4970901;28;20070;-85
2022/10/02 13:23:18;;;;;;;15.70;2.40;;;;;;;;;;4982876;28;20042;-85
2022/10/02 13:26:30;;;;;;;9.65;2.63;;;;;;;;;;4967308;28;20122;-85
2022/10/02 13:29:08;;;;;;;13.40;2.40;;;;;;;;;;4982755;28;20050;-85
2022/10/02 13:32:06;;;;;;;8.43;1.75;;;;;;;;;;4981119;28;20062;-85
2022/10/02 13:35:08;;;;;;;10.43;1.77;;;;;;;;;;5014757;28;20067;-85
2022/10/02 13:37:55;;;;;;;9.75;2.22;;;;;;;;;;5045565;28;20088;-85
2022/10/02 13:40:54;;;;;;;16.40;2.10;;;;;;;;;;5044145;28;20041;-85
2022/10/02 13:43:56;;;;;;;11.68;1.67;;;;;;;;;;5037312;28;20055;-85
2022/10/02 13:47:23;;;;;;;8.43;1.80;;;;;;;;;;5044081;28;20528;-85
2022/10/02 13:50:01;;;;;;;13.30;2.10;;;;;;;;;;5045289;28;20068;-85
2022/10/02 13:52:52;;;;;;;21.10;2.42;;;;;;;;;;5045637;28;20048;-85
2022/10/02 13:55:50;;;;;;;11.82;1.58;;;;;;;;;;5046202;28;20045;-85
2022/10/02 13:59:05;;;;;;;11.32;1.88;;;;;;;;;;5042198;28;20033;-85
2022/10/02 14:01:54;;;;;;;16.83;1.75;;;;;;;;;;4944951;28;20099;-85
2022/10/02 14:04:26;;;;;;;9.30;1.52;;;;;;;;;;4944301;28;20099;-85
2022/10/02 14:07:12;;;;;;;9.95;1.67;;;;;;;;;;4931003;28;20053;-85
2022/10/02 14:09:56;;;;;;;6.30;1.50;;;;;;;;;;4947423;28;20057;-85
2022/10/02 14:12:35;;;;;;;10.07;1.60;;;;;;;;;;4929899;28;20055;-85
2022/10/02 14:15:03;;;;;;;11.48;1.70;;;;;;;;;;4943693;28;20138;-85
2022/10/02 14:17:45;;;;;;;14.68;1.75;;;;;;;;;;4944366;28;20471;-85
2022/10/02 14:20:25;;;;;;;13.77;1.75;;;;;;;;;;4947671;28;20451;-85
2022/10/02 14:23:38;;;;;;;11.70;1.63;;;;;;;;;;4945109;28;20051;-85
2022/10/02 14:26:55;;;;;;;13.40;2.17;;;;;;;;;;4871640;29;20069;-85
2022/10/02 14:29:31;;;;;;;19.02;2.60;;;;;;;;;;4870810;29;20115;-85
2022/10/02 14:32:19;;;;;;;14.82;2.85;;;;;;;;;;4871302;29;20131;-85
2022/10/02 14:35:00;;;;;;;13.70;1.75;;;;;;;;;;4870043;29;20408;-85
2022/10/02 14:38:05;;;;;;;10.30;1.25;;;;;;;;;;4912714;29;20118;-85
2022/10/02 14:40:50;;;;;;;8.10;1.30;;;;;;;;;;4941717;28;20085;-84
2022/10/02 14:43:36;;;;;;;10.68;1.65;;;;;;;;;;4946613;28;20051;-85
2022/10/02 14:46:19;;;;;;;12.75;1.65;;;;;;;;;;4946994;28;20103;-85
2022/10/02 14:49:15;;;;;;;12.10;2.10;;;;;;;;;;4943052;28;20067;-85
2022/10/02 14:52:00;;;;;;;12.95;2.47;;;;;;;;;;4938999;28;20231;-86
2022/10/02 14:54:43;;;;;;;11.85;1.85;;;;;;;;;;4944303;28;20132;-84
2022/10/02 14:57:18;;;;;;;8.90;1.20;;;;;;;;;;4945733;28;20661;-85
2022/10/02 15:00:13;;;;;;;6.13;1.33;;;;;;;;;;4947544;29;20255;-85
2022/10/02 15:03:17;;;;;;;11.40;2.78;;;;;;;;;;5016784;28;20416;-85
2022/10/02 15:06:38;;;;;;;10.43;1.67;;;;;;;;;;5048544;28;20064;-85
2022/10/02 15:09:18;;;;;;;12.57;2.00;;;;;;;;;;5045864;28;20060;-84
2022/10/02 15:12:35;;;;;;;8.50;1.90;;;;;;;;;;5048948;28;20029;-84
2022/10/02 15:15:37;;;;;;;12.90;1.95;;;;;;;;;;5029081;28;20045;-84
2022/10/02 15:18:40;;;;;;;11.60;2.10;;;;;;;;;;5047562;28;20041;-84
2022/10/02 15:21:43;;;;;;;15.63;2.25;;;;;;;;;;5045698;28;20111;-84
2022/10/02 15:24:38;;;;;;;8.23;1.50;;;;;;;;;;5044536;28;20033;-84
2022/10/02 15:27:55;;;;;;;13.15;1.80;;;;;;;;;;5045751;28;20171;-84
2022/10/02 15:31:05;;;;;;;14.10;1.90;;;;;;;;;;5043814;28;20072;-84
2022/10/02 15:33:55;;;;;;;12.77;1.85;;;;;;;;;;5046247;28;20037;-84
2022/10/02 15:37:01;;;;;;;13.38;2.00;;;;;;;;;;5049822;28;20045;-84
2022/10/02 15:40:04;;;;;;;18.25;1.90;;;;;;;;;;5047627;28;20067;-84
2022/10/02 15:42:41;;;;;;;12.68;1.70;;;;;;;;;;5046767;28;20029;-84
2022/10/02 15:46:01;;;;;;;13.13;3.55;;;;;;;;;;5046373;28;20036;-85
2022/10/02 15:48:52;;;;;;;10.57;1.67;;;;;;;;;;5048004;28;20084;-85
2022/10/02 15:51:35;;;;;;;15.43;2.72;;;;;;;;;;5046228;28;20045;-85
2022/10/02 15:54:51;;;;;;;13.25;1.83;;;;;;;;;;5046958;28;20079;-84
2022/10/02 15:57:35;;;;;;;17.15;1.98;;;;;;;;;;5045124;28;20416;-85
2022/10/02 16:00:12;;;;;;;13.93;2.42;;;;;;;;;;5044614;28;20049;-85
2022/10/02 16:03:01;;;;;;;13.13;2.78;;;;;;;;;;5047861;28;20051;-85
2022/10/02 16:05:42;;;;;;;12.43;2.28;;;;;;;;;;5046151;28;20049;-85
2022/10/02 16:08:44;;;;;;;11.57;1.90;;;;;;;;;;5047107;28;20045;-85
2022/10/02 16:11:45;;;;;;;16.40;1.80;;;;;;;;;;5047758;28;20484;-85
2022/10/02 16:14:20;;;;;;;8.15;2.05;;;;;;;;;;5026543;28;20139;-84
2022/10/02 16:17:23;;;;;;;13.20;1.63;;;;;;;;;;5045699;28;20041;-84
2022/10/02 16:19:56;;;;;;;15.23;2.05;;;;;;;;;;5045117;28;20052;-84
2022/10/02 16:22:37;;;;;;;15.98;2.08;;;;;;;;;;5045802;28;20047;-84
2022/10/02 16:25:25;;;;;;;13.65;1.88;;;;;;;;;;5046375;28;20042;-84
2022/10/02 16:28:19;;;;;;;17.85;2.47;;;;;;;;;;5044883;28;20451;-84
2022/10/02 16:30:51;;;;;;;13.82;1.90;;;;;;;;;;5039602;28;20091;-84
2022/10/02 16:33:38;;;;;;;16.23;2.20;;;;;;;;;;5042470;28;20054;-84
2022/10/02 16:36:33;;;;;;;14.85;1.77;;;;;;;;;;5047878;28;20128;-84
2022/10/02 16:39:57;;;;;;;13.07;2.00;;;;;;;;;;5046233;28;20099;-84
2022/10/02 16:43:11;;;;;;;13.60;1.88;;;;;;;;;;4966318;28;20046;-84
2022/10/02 16:46:08;;;;;;;24.40;2.20;;;;;;;;;;4966009;28;20415;-84
2022/10/02 16:48:45;;;;;;;14.60;2.05;;;;;;;;;;4965594;28;20098;-85
2022/10/02 16:52:02;;;;;;;20.08;1.83;;;;;;;;;;4968974;28;20055;-84
2022/10/02 16:54:58;;;;;;;15.10;2.30;;;;;;;;;;4890487;29;20056;-85
2022/10/02 16:57:37;;;;;;;13.45;2.47;;;;;;;;;;4887417;29;20075;-84
2022/10/02 17:00:52;;;;;;;13.57;2.28;;;;;;;;;;4889856;29;20064;-84
2022/10/02 17:03:30;;;;;;;14.00;2.70;;;;;;;;;;4880120;29;20053;-85
2022/10/02 17:06:34;;;;;;;10.73;2.00;;;;;;;;;;4890563;29;20127;-84
2022/10/02 17:09:16;;;;;;;14.73;2.50;;;;;;;;;;4887144;29;20578;-85
2022/10/02 17:12:09;;;;;;;10.75;2.38;;;;;;;;;;4893329;29;20061;-84
2022/10/02 17:14:49;;;;;;;18.58;3.10;;;;;;;;;;4962726;28;20573;-85